createdAt,value
2019-01-29T00:00:33.397Z,405.05
2019-01-29T00:01:33.410Z,404.36
2019-01-29T00:02:33.382Z,404.35
2019-01-29T00:03:33.391Z,405.20
2019-01-29T00:04:33.394Z,403.62
2019-01-29T00:05:33.391Z,404.13
2019-01-29T00:06:33.330Z,404.60
2019-01-29T00:07:33.319Z,404.85
2019-01-29T00:08:33.347Z,404.16
2019-01-29T00:09:33.313Z,404.69
2019-01-29T00:10:33.301Z,404.99
2019-01-29T00:11:33.294Z,404.80
2019-01-29T00:12:34.719Z,405.12
2019-01-29T00:13:33.262Z,404.51
2019-01-29T00:14:33.282Z,404.82
2019-01-29T00:15:33.243Z,403.98
2019-01-29T00:16:33.242Z,404.45
2019-01-29T00:17:33.210Z,404.44
2019-01-29T00:18:33.201Z,404.84
2019-01-29T00:19:33.204Z,404.76
2019-01-29T00:20:33.206Z,404.80
2019-01-29T00:21:33.185Z,404.78
2019-01-29T00:22:33.718Z,404.77
2019-01-29T00:23:33.163Z,404.54
2019-01-29T00:24:33.156Z,404.65
2019-01-29T00:25:33.160Z,404.39
2019-01-29T00:26:33.113Z,404.27
2019-01-29T00:27:33.106Z,404.82
2019-01-29T00:28:33.089Z,404.19
2019-01-29T00:29:33.086Z,403.89
2019-01-29T00:30:33.084Z,404.51
2019-01-29T00:31:33.082Z,404.53
2019-01-29T00:32:33.042Z,404.81
2019-01-29T00:33:33.049Z,403.75
2019-01-29T00:34:33.060Z,404.49
2019-01-29T00:35:33.029Z,404.45
2019-01-29T00:36:33.039Z,404.73
2019-01-29T00:37:33.014Z,404.33
2019-01-29T00:38:32.996Z,404.65
2019-01-29T00:39:32.991Z,404.02
2019-01-29T00:40:32.959Z,404.39
2019-01-29T00:41:32.988Z,403.79
2019-01-29T00:42:32.951Z,404.86
2019-01-29T00:43:32.941Z,404.92
2019-01-29T00:44:32.925Z,403.68
2019-01-29T00:45:32.948Z,404.09
2019-01-29T00:46:32.932Z,404.41
2019-01-29T00:47:32.900Z,404.47
2019-01-29T00:48:32.882Z,404.47
2019-01-29T00:49:32.899Z,405.49
2019-01-29T00:50:32.852Z,404.12
2019-01-29T00:51:32.839Z,404.96
2019-01-29T00:52:32.867Z,404.10
2019-01-29T00:53:32.841Z,404.37
2019-01-29T00:54:32.815Z,404.55
2019-01-29T00:55:32.813Z,403.69
2019-01-29T00:56:32.828Z,403.50
2019-01-29T00:57:32.777Z,404.41
2019-01-29T00:58:32.766Z,404.24
2019-01-29T00:59:32.753Z,403.82
2019-01-29T01:00:32.743Z,403.71
2019-01-29T01:01:32.734Z,403.36
2019-01-29T01:02:32.749Z,404.10
2019-01-29T01:03:32.710Z,403.93
2019-01-29T01:04:32.707Z,403.99
2019-01-29T01:05:32.700Z,403.50
2019-01-29T01:06:32.702Z,404.27
2019-01-29T01:07:32.706Z,404.15
2019-01-29T01:08:32.679Z,404.35
2019-01-29T01:09:32.650Z,405.11
2019-01-29T01:10:32.646Z,403.52
2019-01-29T01:11:32.622Z,404.95
2019-01-29T01:12:32.619Z,403.48
2019-01-29T01:13:32.641Z,403.33
2019-01-29T01:14:32.609Z,403.80
2019-01-29T01:15:32.592Z,405.08
2019-01-29T01:16:32.584Z,403.74
2019-01-29T01:17:32.558Z,404.28
2019-01-29T01:18:32.565Z,403.58
2019-01-29T01:19:32.564Z,403.87
2019-01-29T01:20:32.532Z,403.74
2019-01-29T01:21:32.516Z,403.21
2019-01-29T01:22:32.497Z,403.64
2019-01-29T01:23:32.498Z,403.54
2019-01-29T01:24:32.505Z,402.29
2019-01-29T01:25:32.486Z,403.27
2019-01-29T01:26:32.474Z,403.51
2019-01-29T01:27:32.459Z,402.77
2019-01-29T01:28:32.446Z,402.70
2019-01-29T01:29:32.469Z,402.64
2019-01-29T01:30:32.414Z,403.21
2019-01-29T01:31:32.402Z,403.23
2019-01-29T01:32:32.391Z,403.10
2019-01-29T01:33:32.396Z,402.98
2019-01-29T01:34:32.387Z,402.96
2019-01-29T01:35:32.407Z,402.94
2019-01-29T01:36:32.354Z,403.15
2019-01-29T01:37:32.387Z,403.45
2019-01-29T01:38:32.336Z,403.34
2019-01-29T01:39:32.334Z,404.15
2019-01-29T01:40:32.345Z,404.20
2019-01-29T01:41:32.291Z,403.30
2019-01-29T01:42:32.284Z,403.73
2019-01-29T01:43:32.281Z,403.16
2019-01-29T01:44:32.266Z,403.65
2019-01-29T01:45:32.261Z,403.64
2019-01-29T01:46:32.281Z,403.37
2019-01-29T01:47:32.247Z,403.39
2019-01-29T01:48:32.236Z,402.75
2019-01-29T01:49:32.219Z,403.90
2019-01-29T01:50:32.209Z,403.25
2019-01-29T01:51:32.226Z,403.56
2019-01-29T01:52:32.188Z,403.60
2019-01-29T01:53:32.163Z,403.54
2019-01-29T01:54:32.161Z,403.28
2019-01-29T01:55:32.139Z,403.50
2019-01-29T01:56:32.136Z,403.67
2019-01-29T01:57:32.186Z,404.20
2019-01-29T01:58:32.119Z,403.27
2019-01-29T01:59:32.174Z,404.46
2019-01-29T02:00:32.103Z,403.90
2019-01-29T02:01:32.077Z,403.63
2019-01-29T02:02:32.093Z,403.49
2019-01-29T02:03:32.093Z,404.52
2019-01-29T02:04:32.099Z,403.71
2019-01-29T02:05:32.039Z,405.15
2019-01-29T02:06:32.040Z,403.90
2019-01-29T02:07:32.014Z,403.86
2019-01-29T02:08:32.001Z,403.28
2019-01-29T02:09:32.032Z,404.34
2019-01-29T02:10:31.998Z,404.00
2019-01-29T02:11:31.984Z,403.73
2019-01-29T02:12:31.978Z,404.27
2019-01-29T02:13:31.951Z,404.69
2019-01-29T02:14:31.975Z,404.73
2019-01-29T02:15:31.931Z,405.34
2019-01-29T02:16:31.936Z,404.88
2019-01-29T02:17:31.914Z,403.85
2019-01-29T02:18:31.905Z,404.74
2019-01-29T02:19:31.902Z,404.07
2019-01-29T02:20:31.939Z,404.83
2019-01-29T02:21:31.870Z,404.69
2019-01-29T02:22:31.894Z,404.99
2019-01-29T02:23:31.864Z,404.83
2019-01-29T02:24:31.888Z,405.00
2019-01-29T02:25:31.817Z,405.10
2019-01-29T02:26:31.818Z,404.87
2019-01-29T02:27:31.806Z,404.97
2019-01-29T02:28:31.789Z,405.16
2019-01-29T02:29:31.787Z,404.74
2019-01-29T02:30:31.809Z,405.58
2019-01-29T02:31:31.765Z,405.03
2019-01-29T02:32:31.755Z,405.00
2019-01-29T02:33:31.731Z,404.76
2019-01-29T02:34:31.719Z,405.43
2019-01-29T02:35:31.711Z,404.57
2019-01-29T02:36:31.718Z,404.97
2019-01-29T02:37:31.695Z,405.36
2019-01-29T02:38:31.699Z,405.63
2019-01-29T02:39:31.673Z,405.35
2019-01-29T02:40:31.659Z,405.89
2019-01-29T02:41:31.674Z,404.79
2019-01-29T02:42:31.660Z,406.41
2019-01-29T02:43:31.634Z,405.20
2019-01-29T02:44:31.617Z,405.58
2019-01-29T02:45:31.611Z,405.00
2019-01-29T02:46:31.617Z,404.84
2019-01-29T02:47:31.592Z,404.86
2019-01-29T02:48:31.613Z,405.11
2019-01-29T02:49:31.571Z,405.33
2019-01-29T02:50:31.603Z,405.63
2019-01-29T02:51:31.559Z,406.13
2019-01-29T02:52:31.568Z,405.25
2019-01-29T02:53:31.525Z,405.18
2019-01-29T02:54:31.504Z,406.55
2019-01-29T02:55:31.535Z,405.68
2019-01-29T02:56:31.491Z,405.26
2019-01-29T02:57:31.486Z,404.91
2019-01-29T02:58:31.494Z,405.55
2019-01-29T02:59:31.466Z,405.65
2019-01-29T03:00:31.435Z,404.75
2019-01-29T03:01:31.463Z,405.83
2019-01-29T03:02:31.429Z,405.63
2019-01-29T03:03:31.441Z,404.62
2019-01-29T03:04:31.402Z,406.13
2019-01-29T03:05:31.378Z,405.76
2019-01-29T03:06:31.409Z,405.44
2019-01-29T03:07:31.363Z,405.35
2019-01-29T03:08:31.355Z,404.95
2019-01-29T03:09:31.376Z,404.78
2019-01-29T03:10:31.354Z,404.69
2019-01-29T03:11:31.321Z,404.98
2019-01-29T03:12:31.358Z,405.30
2019-01-29T03:13:31.315Z,404.90
2019-01-29T03:14:31.303Z,405.68
2019-01-29T03:15:31.287Z,405.36
2019-01-29T03:16:31.286Z,405.01
2019-01-29T03:17:31.273Z,404.77
2019-01-29T03:18:31.358Z,406.13
2019-01-29T03:19:31.258Z,405.88
2019-01-29T03:20:31.235Z,405.09
2019-01-29T03:21:31.917Z,404.77
2019-01-29T03:22:31.217Z,405.74
2019-01-29T03:23:31.208Z,404.66
2019-01-29T03:24:31.210Z,405.01
2019-01-29T03:25:31.175Z,404.79
2019-01-29T03:26:31.187Z,404.35
2019-01-29T03:27:31.167Z,405.56
2019-01-29T03:28:31.155Z,405.26
2019-01-29T03:29:31.163Z,405.41
2019-01-29T03:30:31.125Z,405.25
2019-01-29T03:31:31.115Z,405.34
2019-01-29T03:32:31.093Z,404.72
2019-01-29T03:33:31.097Z,404.46
2019-01-29T03:34:31.107Z,404.70
2019-01-29T03:35:31.102Z,405.49
2019-01-29T03:36:31.060Z,405.93
2019-01-29T03:37:31.066Z,405.06
2019-01-29T03:38:31.035Z,404.66
2019-01-29T03:39:31.022Z,404.87
2019-01-29T03:40:31.039Z,406.18
2019-01-29T03:41:31.010Z,404.07
2019-01-29T03:42:30.996Z,405.24
2019-01-29T03:43:30.985Z,405.90
2019-01-29T03:44:30.976Z,406.38
2019-01-29T03:45:30.971Z,404.17
2019-01-29T03:46:30.980Z,405.65
2019-01-29T03:47:30.952Z,405.51
2019-01-29T03:48:30.930Z,406.16
2019-01-29T03:49:30.916Z,405.03
2019-01-29T03:50:30.927Z,406.04
2019-01-29T03:51:30.897Z,404.58
2019-01-29T03:52:30.880Z,405.82
2019-01-29T03:53:37.823Z,406.37
2019-01-29T03:54:31.862Z,405.25
2019-01-29T03:55:30.866Z,405.64
2019-01-29T03:56:30.877Z,405.29
2019-01-29T03:57:30.834Z,406.18
2019-01-29T03:58:30.812Z,405.52
2019-01-29T03:59:30.811Z,407.02
2019-01-29T04:00:30.804Z,405.09
2019-01-29T04:01:30.808Z,406.01
2019-01-29T04:02:30.785Z,407.66
2019-01-29T04:03:30.765Z,407.35
2019-01-29T04:04:30.747Z,406.46
2019-01-29T04:05:30.775Z,406.23
2019-01-29T04:06:30.754Z,405.98
2019-01-29T04:07:30.741Z,406.45
2019-01-29T04:08:30.726Z,406.49
2019-01-29T04:09:30.701Z,406.00
2019-01-29T04:10:30.688Z,406.41
2019-01-29T04:11:30.698Z,405.51
2019-01-29T04:12:30.688Z,406.23
2019-01-29T04:13:30.660Z,405.84
2019-01-29T04:14:30.659Z,406.21
2019-01-29T04:15:30.632Z,406.83
2019-01-29T04:16:30.657Z,406.56
2019-01-29T04:17:30.633Z,405.64
2019-01-29T04:18:30.620Z,407.81
2019-01-29T04:19:30.598Z,407.32
2019-01-29T04:20:30.586Z,406.56
2019-01-29T04:21:30.601Z,406.23
2019-01-29T04:22:30.564Z,406.08
2019-01-29T04:23:30.558Z,407.28
2019-01-29T04:24:30.555Z,405.83
2019-01-29T04:25:30.542Z,406.18
2019-01-29T04:26:30.523Z,406.34
2019-01-29T04:27:30.537Z,406.15
2019-01-29T04:28:30.507Z,406.13
2019-01-29T04:29:30.506Z,405.72
2019-01-29T04:30:30.480Z,406.33
2019-01-29T04:31:30.475Z,406.05
2019-01-29T04:32:30.481Z,406.45
2019-01-29T04:33:30.439Z,406.13
2019-01-29T04:34:30.430Z,405.30
2019-01-29T04:35:30.416Z,406.31
2019-01-29T04:36:30.447Z,406.18
2019-01-29T04:37:30.400Z,406.80
2019-01-29T04:38:30.404Z,406.33
2019-01-29T04:39:30.382Z,407.51
2019-01-29T04:40:30.395Z,405.86
2019-01-29T04:41:30.387Z,405.72
2019-01-29T04:42:30.341Z,406.89
2019-01-29T04:43:30.336Z,406.50
2019-01-29T04:44:30.323Z,406.15
2019-01-29T04:45:30.319Z,406.40
2019-01-29T04:46:30.311Z,405.68
2019-01-29T04:47:30.308Z,405.81
2019-01-29T04:48:30.295Z,406.69
2019-01-29T04:49:30.275Z,406.05
2019-01-29T04:50:30.262Z,406.44
2019-01-29T04:51:30.269Z,406.09
2019-01-29T04:52:30.319Z,407.15
2019-01-29T04:53:30.227Z,406.54
2019-01-29T04:54:30.255Z,406.96
2019-01-29T04:55:30.207Z,406.05
2019-01-29T04:56:30.213Z,406.25
2019-01-29T04:57:30.190Z,406.47
2019-01-29T04:58:30.198Z,406.35
2019-01-29T04:59:30.186Z,406.41
2019-01-29T05:00:30.167Z,406.40
2019-01-29T05:01:30.144Z,406.32
2019-01-29T05:02:30.133Z,406.26
2019-01-29T05:03:30.147Z,406.25
2019-01-29T05:04:30.114Z,406.73
2019-01-29T05:05:30.098Z,406.56
2019-01-29T05:06:30.090Z,407.26
2019-01-29T05:07:30.072Z,407.20
2019-01-29T05:08:30.100Z,406.47
2019-01-29T05:09:30.075Z,406.38
2019-01-29T05:10:30.055Z,406.07
2019-01-29T05:11:30.051Z,406.95
2019-01-29T05:12:30.040Z,406.90
2019-01-29T05:13:30.007Z,407.49
2019-01-29T05:14:30.096Z,406.12
2019-01-29T05:15:29.981Z,407.29
2019-01-29T05:16:29.989Z,406.82
2019-01-29T05:17:29.968Z,407.18
2019-01-29T05:18:31.932Z,406.82
2019-01-29T05:19:29.946Z,407.55
2019-01-29T05:20:29.965Z,406.96
2019-01-29T05:21:29.944Z,406.83
2019-01-29T05:22:29.923Z,408.32
2019-01-29T05:23:29.913Z,409.27
2019-01-29T05:24:29.920Z,408.65
2019-01-29T05:25:29.904Z,406.48
2019-01-29T05:26:29.872Z,407.98
2019-01-29T05:27:29.879Z,406.51
2019-01-29T05:28:29.946Z,406.63
2019-01-29T05:29:29.868Z,406.45
2019-01-29T05:30:29.836Z,406.83
2019-01-29T05:31:29.828Z,407.47
2019-01-29T05:32:29.814Z,406.19
2019-01-29T05:33:29.794Z,407.72
2019-01-29T05:34:29.799Z,409.85
2019-01-29T05:35:29.788Z,408.61
2019-01-29T05:36:29.770Z,406.66
2019-01-29T05:37:29.749Z,407.07
2019-01-29T05:38:29.741Z,407.01
2019-01-29T05:39:29.768Z,407.74
2019-01-29T05:40:29.724Z,406.86
2019-01-29T05:41:29.719Z,407.54
2019-01-29T05:42:29.712Z,407.58
2019-01-29T05:43:29.709Z,407.47
2019-01-29T05:44:29.688Z,407.52
2019-01-29T05:45:29.694Z,408.21
2019-01-29T05:46:29.660Z,407.31
2019-01-29T05:47:29.653Z,407.48
2019-01-29T05:48:29.646Z,407.10
2019-01-29T05:49:29.629Z,407.42
2019-01-29T05:50:29.630Z,407.09
2019-01-29T05:51:29.636Z,408.48
2019-01-29T05:52:29.596Z,408.51
2019-01-29T05:53:29.589Z,407.41
2019-01-29T05:54:29.583Z,407.25
2019-01-29T05:55:29.620Z,406.52
2019-01-29T05:56:29.570Z,407.27
2019-01-29T05:57:29.537Z,407.52
2019-01-29T05:58:29.528Z,407.03
2019-01-29T05:59:29.533Z,407.05
2019-01-29T06:00:29.511Z,407.67
2019-01-29T06:01:29.532Z,407.22
2019-01-29T06:02:29.503Z,406.97
2019-01-29T06:03:29.484Z,406.87
2019-01-29T06:04:29.484Z,406.35
2019-01-29T06:05:29.456Z,407.15
2019-01-29T06:06:29.461Z,407.17
2019-01-29T06:07:29.440Z,407.14
2019-01-29T06:08:29.430Z,407.58
2019-01-29T06:09:29.421Z,407.08
2019-01-29T06:10:29.401Z,407.01
2019-01-29T06:11:29.403Z,406.67
2019-01-29T06:12:29.384Z,406.60
2019-01-29T06:13:29.377Z,407.52
2019-01-29T06:14:29.364Z,407.77
2019-01-29T06:15:29.362Z,407.45
2019-01-29T06:16:29.384Z,407.83
2019-01-29T06:17:29.328Z,407.13
2019-01-29T06:18:29.309Z,408.15
2019-01-29T06:19:29.310Z,407.04
2019-01-29T06:20:29.289Z,408.51
2019-01-29T06:21:29.296Z,408.84
2019-01-29T06:22:29.308Z,408.14
2019-01-29T06:23:29.271Z,407.65
2019-01-29T06:24:29.250Z,407.10
2019-01-29T06:25:29.259Z,408.22
2019-01-29T06:26:29.255Z,409.86
2019-01-29T06:27:29.252Z,408.09
2019-01-29T06:28:29.213Z,407.54
2019-01-29T06:29:29.223Z,406.85
2019-01-29T06:30:29.186Z,407.33
2019-01-29T06:31:29.176Z,407.98
2019-01-29T06:32:29.165Z,406.01
2019-01-29T06:33:29.197Z,407.76
2019-01-29T06:34:29.180Z,407.90
2019-01-29T06:35:29.145Z,408.58
2019-01-29T06:36:29.133Z,408.68
2019-01-29T06:37:29.126Z,407.78
2019-01-29T06:38:29.106Z,409.11
2019-01-29T06:39:29.095Z,408.82
2019-01-29T06:40:29.085Z,408.10
2019-01-29T06:41:29.068Z,407.52
2019-01-29T06:42:29.090Z,408.94
2019-01-29T06:43:29.097Z,407.64
2019-01-29T06:44:29.047Z,408.10
2019-01-29T06:45:29.031Z,408.26
2019-01-29T06:46:29.046Z,408.43
2019-01-29T06:47:29.026Z,409.26
2019-01-29T06:48:29.004Z,407.07
2019-01-29T06:49:29.015Z,408.52
2019-01-29T06:50:28.976Z,408.98
2019-01-29T06:51:28.977Z,408.43
2019-01-29T06:52:28.963Z,409.21
2019-01-29T06:53:28.945Z,409.68
2019-01-29T06:54:34.223Z,409.28
2019-01-29T06:55:29.946Z,408.55
2019-01-29T06:56:28.986Z,408.53
2019-01-29T06:57:28.905Z,409.39
2019-01-29T06:58:28.922Z,408.38
2019-01-29T06:59:28.928Z,410.02
2019-01-29T07:00:28.879Z,409.57
2019-01-29T07:01:28.856Z,408.54
2019-01-29T07:02:28.882Z,408.81
2019-01-29T07:03:28.838Z,409.63
2019-01-29T07:04:28.833Z,409.52
2019-01-29T07:05:28.855Z,409.45
2019-01-29T07:06:28.803Z,410.09
2019-01-29T07:07:28.801Z,409.74
2019-01-29T07:08:28.795Z,409.62
2019-01-29T07:09:28.773Z,409.07
2019-01-29T07:10:28.780Z,409.08
2019-01-29T07:11:28.755Z,409.07
2019-01-29T07:12:28.776Z,408.89
2019-01-29T07:13:28.723Z,409.13
2019-01-29T07:14:28.737Z,412.30
2019-01-29T07:15:28.708Z,409.70
2019-01-29T07:16:28.704Z,409.23
2019-01-29T07:17:28.726Z,409.60
2019-01-29T07:18:28.679Z,408.85
2019-01-29T07:19:28.702Z,409.59
2019-01-29T07:20:28.692Z,409.91
2019-01-29T07:21:28.636Z,408.52
2019-01-29T07:22:28.629Z,409.15
2019-01-29T07:23:28.621Z,407.95
2019-01-29T07:24:28.638Z,409.56
2019-01-29T07:25:28.648Z,410.00
2019-01-29T07:26:28.595Z,409.86
2019-01-29T07:27:28.577Z,408.61
2019-01-29T07:28:28.567Z,409.00
2019-01-29T07:29:28.594Z,408.43
2019-01-29T07:30:30.730Z,408.54
2019-01-29T07:31:28.591Z,408.33
2019-01-29T07:32:28.597Z,407.94
2019-01-29T07:33:29.449Z,408.93
2019-01-29T07:34:28.496Z,409.45
2019-01-29T07:35:28.550Z,408.89
2019-01-29T07:36:28.507Z,409.28
2019-01-29T07:37:28.480Z,408.79
2019-01-29T07:38:28.489Z,408.62
2019-01-29T07:39:28.482Z,408.22
2019-01-29T07:40:28.445Z,408.52
2019-01-29T07:41:28.426Z,408.90
2019-01-29T07:42:28.443Z,408.31
2019-01-29T07:43:28.495Z,408.62
2019-01-29T07:44:28.952Z,407.63
2019-01-29T07:45:28.403Z,408.46
2019-01-29T07:46:28.983Z,410.31
2019-01-29T07:47:28.570Z,409.30
2019-01-29T07:48:28.352Z,408.63
2019-01-29T07:49:28.583Z,408.11
2019-01-29T07:50:28.431Z,409.90
2019-01-29T07:51:28.332Z,408.62
2019-01-29T07:52:28.354Z,410.29
2019-01-29T07:53:28.299Z,408.43
2019-01-29T07:54:33.253Z,408.76
2019-01-29T07:55:29.280Z,409.20
2019-01-29T07:56:28.375Z,408.35
2019-01-29T07:57:28.254Z,410.13
2019-01-29T07:58:28.549Z,409.47
2019-01-29T07:59:33.065Z,409.38
2019-01-29T08:00:29.226Z,409.67
2019-01-29T08:01:28.216Z,409.06
2019-01-29T08:02:28.206Z,408.73
2019-01-29T08:03:28.221Z,408.53
2019-01-29T08:04:28.191Z,408.34
2019-01-29T08:05:28.168Z,408.16
2019-01-29T08:06:28.161Z,408.60
2019-01-29T08:07:28.158Z,408.71
2019-01-29T08:08:28.167Z,409.35
2019-01-29T08:09:28.152Z,408.52
2019-01-29T08:10:28.126Z,410.30
2019-01-29T08:11:28.118Z,409.28
2019-01-29T08:12:28.099Z,408.70
2019-01-29T08:13:28.542Z,409.05
2019-01-29T08:14:28.065Z,409.86
2019-01-29T08:15:28.066Z,409.41
2019-01-29T08:16:28.056Z,410.05
2019-01-29T08:17:28.034Z,409.23
2019-01-29T08:18:28.050Z,409.50
2019-01-29T08:19:28.024Z,408.94
2019-01-29T08:20:28.016Z,409.10
2019-01-29T08:21:27.999Z,408.95
2019-01-29T08:22:27.994Z,408.96
2019-01-29T08:23:27.995Z,409.45
2019-01-29T08:24:27.965Z,409.50
2019-01-29T08:25:27.957Z,410.79
2019-01-29T08:26:27.934Z,410.76
2019-01-29T08:27:27.925Z,410.02
2019-01-29T08:28:27.944Z,409.09
2019-01-29T08:29:27.917Z,409.51
2019-01-29T08:30:27.900Z,410.35
2019-01-29T08:31:27.889Z,410.56
2019-01-29T08:32:27.876Z,409.23
2019-01-29T08:33:27.910Z,409.43
2019-01-29T08:34:27.859Z,409.20
2019-01-29T08:35:27.855Z,410.35
2019-01-29T08:36:27.844Z,410.80
2019-01-29T08:37:27.820Z,409.40
2019-01-29T08:38:27.804Z,409.62
2019-01-29T08:39:27.817Z,408.61
2019-01-29T08:40:27.787Z,409.38
2019-01-29T08:41:27.787Z,409.00
2019-01-29T08:42:27.769Z,409.61
2019-01-29T08:43:27.767Z,408.88
2019-01-29T08:44:27.792Z,409.24
2019-01-29T08:45:27.738Z,409.24
2019-01-29T08:46:27.719Z,408.92
2019-01-29T08:47:27.721Z,410.15
2019-01-29T08:48:27.711Z,409.06
2019-01-29T08:49:27.693Z,410.75
2019-01-29T08:50:27.697Z,410.14
2019-01-29T08:51:27.688Z,410.00
2019-01-29T08:52:27.676Z,410.23
2019-01-29T08:53:27.662Z,410.23
2019-01-29T08:54:27.649Z,410.81
2019-01-29T08:55:27.655Z,410.05
2019-01-29T08:56:27.623Z,412.64
2019-01-29T08:57:27.602Z,411.63
2019-01-29T08:58:27.601Z,410.17
2019-01-29T08:59:27.578Z,410.29
2019-01-29T09:00:27.598Z,409.29
2019-01-29T09:01:27.561Z,409.45
2019-01-29T09:02:27.560Z,409.82
2019-01-29T09:03:27.536Z,409.74
2019-01-29T09:04:27.541Z,410.03
2019-01-29T09:05:27.522Z,410.06
2019-01-29T09:06:27.557Z,409.39
2019-01-29T09:07:27.504Z,409.68
2019-01-29T09:08:27.504Z,409.85
2019-01-29T09:09:27.496Z,409.73
2019-01-29T09:10:27.477Z,409.09
2019-01-29T09:11:27.456Z,409.75
2019-01-29T09:12:27.437Z,410.92
2019-01-29T09:13:27.442Z,410.13
2019-01-29T09:14:27.466Z,409.41
2019-01-29T09:15:27.424Z,409.14
2019-01-29T09:16:27.429Z,409.84
2019-01-29T09:17:27.387Z,410.03
2019-01-29T09:18:27.367Z,409.92
2019-01-29T09:19:27.371Z,411.34
2019-01-29T09:20:27.356Z,409.45
2019-01-29T09:21:27.351Z,410.32
2019-01-29T09:22:27.357Z,410.00
2019-01-29T09:23:27.321Z,409.61
2019-01-29T09:24:27.308Z,411.24
2019-01-29T09:25:27.302Z,410.48
2019-01-29T09:26:27.319Z,410.95
2019-01-29T09:27:27.355Z,409.44
2019-01-29T09:28:27.272Z,409.96
2019-01-29T09:29:27.252Z,410.08
2019-01-29T09:30:27.238Z,409.99
2019-01-29T09:31:27.225Z,410.08
2019-01-29T09:32:27.224Z,409.27
2019-01-29T09:33:27.233Z,409.30
2019-01-29T09:34:27.209Z,409.36
2019-01-29T09:35:27.197Z,410.97
2019-01-29T09:36:27.174Z,410.99
2019-01-29T09:37:27.167Z,411.11
2019-01-29T09:38:27.191Z,410.69
2019-01-29T09:39:27.166Z,410.85
2019-01-29T09:40:27.139Z,409.80
2019-01-29T09:41:27.138Z,409.51
2019-01-29T09:42:27.110Z,409.52
2019-01-29T09:43:27.125Z,409.77
2019-01-29T09:44:27.100Z,410.20
2019-01-29T09:45:27.084Z,410.11
2019-01-29T09:46:27.074Z,410.50
2019-01-29T09:47:27.064Z,410.30
2019-01-29T09:48:27.129Z,410.25
2019-01-29T09:49:27.036Z,409.22
2019-01-29T09:50:27.030Z,411.19
2019-01-29T09:51:27.028Z,410.49
2019-01-29T09:52:27.026Z,410.05
2019-01-29T09:53:26.997Z,410.72
2019-01-29T09:54:27.002Z,410.25
2019-01-29T09:55:29.354Z,410.99
2019-01-29T09:56:26.965Z,412.38
2019-01-29T09:57:26.956Z,410.25
2019-01-29T09:58:26.953Z,409.63
2019-01-29T09:59:26.973Z,409.74
2019-01-29T10:00:26.964Z,409.52
2019-01-29T10:01:26.904Z,410.90
2019-01-29T10:02:26.893Z,409.94
2019-01-29T10:03:26.885Z,411.03
2019-01-29T10:04:26.869Z,410.46
2019-01-29T10:05:26.897Z,410.43
2019-01-29T10:06:26.869Z,410.40
2019-01-29T10:07:26.836Z,411.45
2019-01-29T10:08:26.825Z,409.62
2019-01-29T10:09:26.838Z,410.43
2019-01-29T10:10:26.814Z,411.06
2019-01-29T10:11:28.583Z,409.14
2019-01-29T10:12:26.794Z,410.19
2019-01-29T10:13:26.773Z,409.83
2019-01-29T10:14:26.768Z,409.76
2019-01-29T10:15:26.762Z,409.61
2019-01-29T10:16:26.815Z,409.07
2019-01-29T10:17:26.733Z,410.72
2019-01-29T10:18:26.729Z,410.05
2019-01-29T10:19:26.719Z,411.64
2019-01-29T10:20:26.704Z,411.47
2019-01-29T10:21:26.745Z,409.44
2019-01-29T10:22:26.677Z,408.97
2019-01-29T10:23:26.703Z,408.81
2019-01-29T10:24:26.678Z,410.24
2019-01-29T10:25:26.642Z,410.57
2019-01-29T10:26:26.628Z,410.09
2019-01-29T10:27:26.638Z,411.12
2019-01-29T10:28:26.607Z,410.47
2019-01-29T10:29:26.610Z,410.76
2019-01-29T10:30:26.636Z,409.52
2019-01-29T10:31:26.594Z,410.21
2019-01-29T10:32:26.591Z,411.00
2019-01-29T10:33:26.555Z,410.75
2019-01-29T10:34:26.541Z,410.47
2019-01-29T10:35:26.531Z,410.28
2019-01-29T10:36:26.551Z,410.79
2019-01-29T10:37:26.519Z,410.70
2019-01-29T10:38:26.509Z,409.59
2019-01-29T10:39:26.483Z,409.74
2019-01-29T10:40:26.482Z,410.39
2019-01-29T10:41:26.471Z,409.47
2019-01-29T10:42:26.507Z,410.56
2019-01-29T10:43:26.463Z,410.80
2019-01-29T10:44:26.447Z,410.41
2019-01-29T10:45:26.427Z,410.80
2019-01-29T10:46:26.412Z,411.20
2019-01-29T10:47:26.428Z,411.88
2019-01-29T10:48:26.396Z,411.80
2019-01-29T10:49:26.389Z,410.36
2019-01-29T10:50:26.378Z,410.24
2019-01-29T10:51:26.364Z,411.10
2019-01-29T10:52:26.390Z,410.18
2019-01-29T10:53:26.330Z,410.62
2019-01-29T10:54:26.334Z,410.79
2019-01-29T10:55:26.328Z,409.47
2019-01-29T10:56:26.311Z,410.32
2019-01-29T10:57:26.330Z,409.72
2019-01-29T10:58:26.288Z,411.24
2019-01-29T10:59:26.268Z,411.57
2019-01-29T11:00:26.258Z,411.00
2019-01-29T11:01:26.268Z,409.66
2019-01-29T11:02:26.250Z,410.22
2019-01-29T11:03:26.319Z,409.75
2019-01-29T11:04:26.218Z,410.41
2019-01-29T11:05:26.207Z,411.51
2019-01-29T11:06:26.185Z,409.82
2019-01-29T11:07:26.204Z,410.04
2019-01-29T11:08:26.180Z,410.83
2019-01-29T11:09:26.169Z,410.96
2019-01-29T11:10:26.169Z,411.69
2019-01-29T11:11:26.140Z,412.90
2019-01-29T11:12:26.128Z,409.99
2019-01-29T11:13:26.147Z,410.61
2019-01-29T11:14:27.055Z,409.87
2019-01-29T11:15:26.114Z,410.35
2019-01-29T11:16:26.087Z,410.32
2019-01-29T11:17:26.089Z,410.67
2019-01-29T11:18:26.099Z,410.10
2019-01-29T11:19:26.083Z,410.44
2019-01-29T11:20:26.037Z,411.17
2019-01-29T11:21:26.042Z,412.07
2019-01-29T11:22:26.023Z,409.94
2019-01-29T11:23:26.017Z,409.86
2019-01-29T11:24:26.006Z,410.34
2019-01-29T11:25:26.017Z,410.34
2019-01-29T11:26:25.975Z,410.36
2019-01-29T11:27:25.974Z,409.59
2019-01-29T11:28:25.962Z,409.55
2019-01-29T11:29:25.955Z,411.36
2019-01-29T11:30:25.951Z,411.04
2019-01-29T11:31:25.923Z,410.52
2019-01-29T11:32:25.918Z,410.70
2019-01-29T11:33:25.961Z,410.88
2019-01-29T11:34:25.894Z,409.11
2019-01-29T11:35:25.905Z,409.24
2019-01-29T11:36:25.917Z,409.37
2019-01-29T11:37:25.855Z,410.10
2019-01-29T11:38:25.848Z,410.12
2019-01-29T11:39:25.830Z,410.18
2019-01-29T11:40:25.855Z,410.40
2019-01-29T11:41:25.832Z,409.14
2019-01-29T11:42:25.846Z,408.66
2019-01-29T11:43:25.785Z,408.62
2019-01-29T11:44:25.782Z,410.39
2019-01-29T11:45:25.774Z,410.91
2019-01-29T11:46:25.773Z,409.87
2019-01-29T11:47:25.785Z,410.14
2019-01-29T11:48:25.744Z,410.34
2019-01-29T11:49:25.722Z,410.05
2019-01-29T11:50:25.724Z,410.64
2019-01-29T11:51:25.698Z,410.38
2019-01-29T11:52:25.705Z,409.95
2019-01-29T11:53:25.723Z,408.99
2019-01-29T11:54:25.681Z,409.49
2019-01-29T11:55:25.670Z,409.93
2019-01-29T11:56:25.655Z,410.73
2019-01-29T11:57:25.649Z,414.68
2019-01-29T11:58:25.621Z,410.69
2019-01-29T11:59:25.640Z,409.85
2019-01-29T12:00:25.609Z,410.61
2019-01-29T12:01:25.596Z,410.75
2019-01-29T12:02:28.501Z,409.92
2019-01-29T12:03:25.578Z,409.48
2019-01-29T12:04:25.582Z,410.15
2019-01-29T12:05:25.564Z,409.91
2019-01-29T12:06:25.546Z,409.75
2019-01-29T12:07:25.553Z,410.90
2019-01-29T12:08:25.525Z,409.71
2019-01-29T12:09:25.531Z,409.35
2019-01-29T12:10:25.493Z,410.13
2019-01-29T12:11:25.486Z,410.49
2019-01-29T12:12:25.474Z,410.91
2019-01-29T12:13:25.503Z,409.44
2019-01-29T12:14:25.492Z,409.90
2019-01-29T12:15:25.447Z,410.24
2019-01-29T12:16:25.435Z,410.32
2019-01-29T12:17:25.431Z,412.03
2019-01-29T12:18:25.417Z,412.59
2019-01-29T12:19:25.407Z,410.43
2019-01-29T12:20:25.426Z,409.98
2019-01-29T12:21:25.370Z,410.66
2019-01-29T12:22:25.365Z,411.00
2019-01-29T12:23:25.353Z,409.06
2019-01-29T12:24:25.347Z,409.14
2019-01-29T12:25:25.373Z,410.08
2019-01-29T12:26:25.344Z,410.81
2019-01-29T12:27:25.325Z,410.17
2019-01-29T12:28:25.320Z,410.76